Terminal Aerodrome Forecast
Issued by NWS Charleston, WV

Current Version | Previous Version | Graphics & Text | Print | Product List | Glossary On
Versions: 1 2 3 4 5 6 7 8 9 10 11 12 13 14 15 16 17 18 19 20 21
000
FTUS41 KRLX 042300
TAFPKB
TAF
KPKB 042337Z 0500/0524 34006KT 3SM -RASNPL BR OVC010
     FM050100 33007KT 1SM -SNPL BR SCT001 OVC008
     FM050200 33007KT 1/2SM SN SCT001 OVC004
     FM051100 35007KT 3SM -SN BR OVC008
     FM051300 34007KT 3SM BR OVC012
     FM051500 34007KT 4SM BR OVC025
     FM052300 34005KT P6SM BKN030=

USA.gov is the U.S. government's official web portal to all federal, state and local government web resources and services.